createdAt,value
2022-09-01T00:04:40.669Z,10.47
2022-09-01T00:09:44.253Z,9.90
2022-09-01T00:14:49.127Z,11.87
2022-09-01T00:19:52.530Z,12.10
2022-09-01T00:24:56.892Z,10.97
2022-09-01T00:30:01.920Z,13.93
2022-09-01T00:35:06.009Z,13.40
2022-09-01T00:40:11.927Z,10.97
2022-09-01T00:45:17.434Z,11.37
2022-09-01T00:50:21.655Z,11.37
2022-09-01T00:55:29.958Z,12.37
2022-09-01T01:00:41.875Z,13.80
2022-09-01T01:05:49.045Z,13.40
2022-09-01T01:10:52.443Z,12.63
2022-09-01T01:15:57.753Z,11.87
2022-09-01T01:21:23.023Z,12.30
2022-09-01T01:26:28.719Z,12.80
2022-09-01T01:31:33.027Z,13.87
2022-09-01T01:36:38.304Z,12.50
2022-09-01T01:41:49.185Z,14.03
2022-09-01T01:46:55.565Z,13.70
2022-09-01T01:51:59.849Z,14.10
2022-09-01T01:57:05.576Z,13.33
2022-09-01T02:02:10.012Z,14.77
2022-09-01T02:07:14.812Z,14.27
2022-09-01T02:12:20.006Z,13.90
2022-09-01T02:17:25.682Z,13.77
2022-09-01T02:22:29.808Z,14.23
2022-09-01T02:27:36.971Z,15.37
2022-09-01T02:32:42.046Z,16.63
2022-09-01T02:37:46.525Z,15.00
2022-09-01T02:42:54.401Z,16.33
2022-09-01T02:47:58.188Z,14.37
2022-09-01T02:53:04.044Z,13.73
2022-09-01T02:58:14.623Z,13.57
2022-09-01T03:03:21.922Z,13.53
2022-09-01T03:08:27.462Z,13.30
2022-09-01T03:13:32.299Z,13.10
2022-09-01T03:18:37.073Z,13.40
2022-09-01T03:23:40.597Z,12.67
2022-09-01T03:28:45.377Z,14.03
2022-09-01T03:33:49.239Z,13.20
2022-09-01T03:38:53.815Z,13.37
2022-09-01T03:43:59.516Z,13.93
2022-09-01T03:49:03.857Z,13.60
2022-09-01T03:54:07.418Z,14.27
2022-09-01T03:59:17.248Z,14.07
2022-09-01T04:04:21.128Z,14.63
2022-09-01T04:09:24.588Z,15.20
2022-09-01T04:14:30.703Z,14.40
2022-09-01T04:19:37.166Z,15.23
2022-09-01T04:24:45.082Z,14.33
2022-09-01T04:29:50.259Z,14.67
2022-09-01T04:34:53.733Z,13.27
2022-09-01T04:39:57.876Z,14.60
2022-09-01T04:45:10.181Z,14.57
2022-09-01T04:50:17.595Z,14.20
2022-09-01T04:55:21.462Z,11.70
2022-09-01T05:00:32.397Z,10.13
2022-09-01T05:05:42.712Z,12.03
2022-09-01T05:10:50.440Z,11.97
2022-09-01T05:16:06.349Z,13.60
2022-09-01T05:21:11.322Z,12.97
2022-09-01T05:26:17.174Z,13.30
2022-09-01T05:31:22.871Z,13.13
2022-09-01T05:36:27.004Z,13.50
2022-09-01T05:41:30.431Z,11.47
2022-09-01T05:46:37.229Z,9.97
2022-09-01T05:51:45.383Z,10.40
2022-09-01T05:56:50.264Z,10.63
2022-09-01T06:01:55.636Z,9.00
2022-09-01T06:07:05.788Z,7.57
2022-09-01T06:12:18.229Z,7.20
2022-09-01T06:17:26.516Z,7.10
2022-09-01T06:22:30.463Z,7.20
2022-09-01T06:27:38.986Z,8.60
2022-09-01T06:32:45.207Z,8.10
2022-09-01T06:37:49.222Z,7.60
2022-09-01T06:42:54.284Z,6.93
2022-09-01T06:48:00.210Z,6.80
2022-09-01T06:53:32.807Z,7.93
2022-09-01T06:58:43.623Z,6.97
2022-09-01T07:03:52.114Z,7.23
2022-09-01T07:14:22.401Z,8.30
2022-09-01T07:25:12.194Z,5.33
2022-09-01T07:30:16.257Z,6.97
2022-09-01T07:35:22.655Z,7.87
2022-09-01T07:45:59.477Z,5.93
2022-09-01T07:56:30.429Z,7.40
2022-09-01T08:01:34.493Z,7.23
2022-09-01T08:06:40.914Z,7.90
2022-09-01T08:12:01.553Z,7.00
2022-09-01T08:22:30.962Z,4.23
2022-09-01T08:27:39.372Z,3.40
2022-09-01T08:32:43.419Z,3.70
2022-09-01T08:37:48.278Z,9.60
2022-09-01T08:43:02.216Z,4.10
2022-09-01T08:48:57.130Z,3.10
2022-09-01T08:53:50.670Z,3.80
2022-09-01T08:58:54.465Z,3.20
2022-09-01T09:04:12.546Z,3.93
2022-09-01T09:09:17.958Z,2.90
2022-09-01T09:14:36.719Z,2.80
2022-09-01T09:19:42.529Z,2.80
2022-09-01T09:24:52.545Z,3.50
2022-09-01T09:29:58.426Z,3.87
2022-09-01T09:35:24.269Z,3.17
2022-09-01T09:40:29.313Z,2.17
2022-09-01T09:45:35.251Z,2.40
2022-09-01T09:50:40.273Z,1.90
2022-09-01T09:56:00.039Z,1.87
2022-09-01T10:01:11.579Z,1.70
2022-09-01T10:06:31.481Z,1.63
2022-09-01T10:11:41.492Z,2.10
2022-09-01T10:16:48.219Z,2.10
2022-09-01T10:21:52.067Z,2.10
2022-09-01T10:27:01.342Z,2.10
2022-09-01T10:32:31.345Z,2.60
2022-09-01T10:37:35.174Z,2.10
2022-09-01T10:42:45.358Z,1.60
2022-09-01T10:47:49.055Z,1.93
2022-09-01T10:53:07.352Z,2.20
2022-09-01T11:04:01.355Z,1.90
2022-09-01T11:09:07.906Z,3.07
2022-09-01T11:14:23.111Z,2.10
2022-09-01T11:19:46.040Z,2.03
2022-09-01T11:25:11.741Z,2.17
2022-09-01T11:30:21.844Z,2.33
2022-09-01T11:35:29.791Z,1.97
2022-09-01T11:40:35.774Z,2.17
2022-09-01T11:45:52.195Z,2.63
2022-09-01T11:51:00.473Z,1.90
2022-09-01T11:56:16.193Z,2.50
2022-09-01T12:01:23.796Z,2.53
2022-09-01T12:06:29.730Z,1.93
2022-09-01T12:11:35.398Z,1.93
2022-09-01T12:16:43.060Z,2.43
2022-09-01T12:22:00.113Z,3.40
2022-09-01T12:27:05.315Z,1.97
2022-09-01T12:32:11.415Z,2.13
2022-09-01T12:37:24.674Z,1.70
2022-09-01T12:42:41.533Z,2.20
2022-09-01T12:47:52.908Z,2.30
2022-09-01T12:52:59.049Z,2.43
2022-09-01T12:58:04.449Z,2.10
2022-09-01T13:03:14.773Z,2.00
2022-09-01T13:08:20.691Z,2.43
2022-09-01T13:13:27.069Z,2.27
2022-09-01T13:18:32.689Z,2.37
2022-09-01T13:23:36.263Z,2.40
2022-09-01T13:28:40.914Z,2.30
2022-09-01T13:39:09.463Z,2.67
2022-09-01T13:44:13.369Z,2.40
2022-09-01T13:54:44.469Z,2.60
2022-09-01T13:59:47.995Z,3.47
2022-09-01T14:04:52.980Z,2.60
2022-09-01T14:09:56.784Z,2.80
2022-09-01T14:15:17.583Z,3.03
2022-09-01T14:20:29.167Z,3.17
2022-09-01T14:25:34.112Z,2.40
2022-09-01T14:30:38.133Z,1.90
2022-09-01T14:35:45.213Z,3.90
2022-09-01T14:40:51.212Z,2.63
2022-09-01T14:46:06.813Z,2.40
2022-09-01T14:51:20.071Z,2.90
2022-09-01T14:56:24.807Z,2.67
2022-09-01T15:01:34.744Z,3.10
2022-09-01T15:06:40.139Z,4.00
2022-09-01T15:11:44.314Z,2.90
2022-09-01T15:16:49.196Z,2.90
2022-09-01T15:21:54.529Z,3.33
2022-09-01T15:26:58.070Z,4.53
2022-09-01T15:32:02.523Z,3.10
2022-09-01T15:37:09.107Z,3.10
2022-09-01T15:42:12.818Z,3.50
2022-09-01T15:47:16.354Z,3.90
2022-09-01T15:52:21.309Z,3.37
2022-09-01T15:57:24.895Z,2.67
2022-09-01T16:02:28.520Z,3.67
2022-09-01T16:07:33.931Z,4.93
2022-09-01T16:12:37.409Z,4.10
2022-09-01T16:18:04.766Z,3.00
2022-09-01T16:23:17.022Z,3.60
2022-09-01T16:28:27.927Z,3.37
2022-09-01T16:33:33.433Z,4.03
2022-09-01T16:38:47.794Z,2.80
2022-09-01T16:44:01.392Z,3.63
2022-09-01T16:49:15.226Z,2.60
2022-09-01T16:54:31.215Z,4.80
2022-09-01T16:59:45.847Z,3.30
2022-09-01T17:04:54.905Z,2.47
2022-09-01T17:10:06.430Z,2.63
2022-09-01T17:15:15.095Z,2.93
2022-09-01T17:20:19.285Z,2.23
2022-09-01T17:25:30.960Z,2.67
2022-09-01T17:30:40.722Z,4.00
2022-09-01T17:35:59.294Z,2.20
2022-09-01T17:41:16.216Z,2.40
2022-09-01T17:46:28.681Z,2.40
2022-09-01T17:51:38.201Z,2.87
2022-09-01T17:56:51.671Z,2.40
2022-09-01T18:02:07.108Z,2.73
2022-09-01T18:07:21.289Z,2.30
2022-09-01T18:12:29.977Z,2.53
2022-09-01T18:17:35.731Z,2.37
2022-09-01T18:22:44.444Z,2.40
2022-09-01T18:27:49.391Z,2.10
2022-09-01T18:33:04.596Z,2.17
2022-09-01T18:38:18.885Z,2.37
2022-09-01T18:43:29.823Z,3.47
2022-09-01T18:48:48.574Z,2.50
2022-09-01T18:53:56.904Z,4.03
2022-09-01T18:59:14.344Z,2.50
2022-09-01T19:04:23.286Z,2.77
2022-09-01T19:09:32.620Z,3.10
2022-09-01T19:15:04.618Z,4.03
2022-09-01T19:20:15.873Z,2.23
2022-09-01T19:25:37.251Z,2.60
2022-09-01T19:30:51.391Z,6.10
2022-09-01T19:36:11.017Z,3.57
2022-09-01T19:41:32.491Z,2.60
2022-09-01T19:46:45.016Z,3.07
2022-09-01T19:52:00.083Z,3.23
2022-09-01T19:57:11.646Z,2.90
2022-09-01T20:02:28.451Z,3.43
2022-09-01T20:07:38.580Z,2.20
2022-09-01T20:12:52.778Z,2.93
2022-09-01T20:18:00.961Z,4.03
2022-09-01T20:23:13.961Z,6.10
2022-09-01T20:28:27.051Z,2.77
2022-09-01T20:33:38.073Z,3.40
2022-09-01T20:39:09.124Z,2.40
2022-09-01T20:44:21.268Z,5.43
2022-09-01T20:49:27.331Z,4.53
2022-09-01T20:54:37.786Z,2.40
2022-09-01T20:59:48.723Z,3.07
2022-09-01T21:05:03.995Z,2.60
2022-09-01T21:10:18.457Z,2.40
2022-09-01T21:15:32.548Z,6.70
2022-09-01T21:20:48.765Z,3.47
2022-09-01T21:25:52.401Z,4.07
2022-09-01T21:30:58.176Z,2.50
2022-09-01T21:36:03.891Z,2.70
2022-09-01T21:41:12.241Z,5.00
2022-09-01T21:46:17.179Z,2.93
2022-09-01T21:51:22.215Z,2.77
2022-09-01T21:56:26.145Z,3.03
2022-09-01T22:01:31.489Z,2.43
2022-09-01T22:06:36.577Z,2.90
2022-09-01T22:11:41.933Z,3.60
2022-09-01T22:16:45.729Z,2.70
2022-09-01T22:21:51.715Z,3.00
2022-09-01T22:26:55.226Z,4.10
2022-09-01T22:38:05.072Z,2.83
2022-09-01T22:43:08.673Z,2.43
2022-09-01T22:48:12.408Z,2.90
2022-09-01T22:53:19.081Z,2.93
2022-09-01T22:58:22.723Z,3.17
2022-09-01T23:03:26.332Z,3.20
2022-09-01T23:08:31.394Z,2.97
2022-09-01T23:13:36.257Z,2.70
2022-09-01T23:18:42.358Z,3.10
2022-09-01T23:23:47.700Z,2.60
2022-09-01T23:28:51.463Z,3.67
2022-09-01T23:33:55.599Z,3.00
2022-09-01T23:39:00.865Z,2.60
2022-09-01T23:44:07.065Z,2.93
2022-09-01T23:49:11.787Z,4.13
2022-09-01T23:54:17.234Z,3.00
2022-09-01T23:59:27.320Z,3.87
